sensor_id;sensor_type;location;lat;lon;timestamp;P1;durP1;ratioP1;P2;durP2;ratioP2
57327;SDS011;43162;51.040;18.244;2023-05-23T00:00:57;10.10;;;7.30;;
57327;SDS011;43162;51.040;18.244;2023-05-23T00:03:24;11.20;;;7.20;;
57327;SDS011;43162;51.040;18.244;2023-05-23T00:05:49;13.70;;;7.60;;
57327;SDS011;43162;51.040;18.244;2023-05-23T00:08:15;13.00;;;7.00;;
57327;SDS011;43162;51.040;18.244;2023-05-23T00:10:42;11.80;;;7.30;;
57327;SDS011;43162;51.040;18.244;2023-05-23T00:13:07;11.40;;;6.70;;
57327;SDS011;43162;51.040;18.244;2023-05-23T00:15:37;9.70;;;7.10;;
57327;SDS011;43162;51.040;18.244;2023-05-23T00:18:02;13.80;;;7.00;;
57327;SDS011;43162;51.040;18.244;2023-05-23T00:20:28;10.10;;;7.00;;
57327;SDS011;43162;51.040;18.244;2023-05-23T00:22:54;12.80;;;6.90;;
57327;SDS011;43162;51.040;18.244;2023-05-23T00:25:23;10.50;;;6.90;;
57327;SDS011;43162;51.040;18.244;2023-05-23T00:27:49;15.40;;;7.20;;
57327;SDS011;43162;51.040;18.244;2023-05-23T00:30:15;12.10;;;6.40;;
57327;SDS011;43162;51.040;18.244;2023-05-23T00:32:40;14.60;;;6.70;;
57327;SDS011;43162;51.040;18.244;2023-05-23T00:35:06;11.40;;;7.00;;
57327;SDS011;43162;51.040;18.244;2023-05-23T00:37:32;11.50;;;6.90;;
57327;SDS011;43162;51.040;18.244;2023-05-23T00:39:58;11.00;;;6.20;;
57327;SDS011;43162;51.040;18.244;2023-05-23T00:42:24;11.30;;;6.70;;
57327;SDS011;43162;51.040;18.244;2023-05-23T00:44:50;17.50;;;8.20;;
57327;SDS011;43162;51.040;18.244;2023-05-23T00:47:15;9.30;;;6.90;;
57327;SDS011;43162;51.040;18.244;2023-05-23T00:49:42;11.70;;;6.70;;
57327;SDS011;43162;51.040;18.244;2023-05-23T00:52:07;9.40;;;7.10;;
57327;SDS011;43162;51.040;18.244;2023-05-23T00:54:33;11.00;;;7.10;;
57327;SDS011;43162;51.040;18.244;2023-05-23T00:57:00;9.90;;;7.00;;
57327;SDS011;43162;51.040;18.244;2023-05-23T00:59:26;13.90;;;7.40;;
57327;SDS011;43162;51.040;18.244;2023-05-23T01:01:53;11.40;;;7.00;;
57327;SDS011;43162;51.040;18.244;2023-05-23T01:04:19;11.20;;;7.10;;
57327;SDS011;43162;51.040;18.244;2023-05-23T01:06:45;13.40;;;7.80;;
57327;SDS011;43162;51.040;18.244;2023-05-23T01:09:14;9.50;;;6.60;;
57327;SDS011;43162;51.040;18.244;2023-05-23T01:20:40;8.20;;;6.20;;
57327;SDS011;43162;51.040;18.244;2023-05-23T01:23:19;11.60;;;6.90;;
57327;SDS011;43162;51.040;18.244;2023-05-23T01:28:22;8.40;;;5.90;;
57327;SDS011;43162;51.040;18.244;2023-05-23T01:30:51;7.20;;;5.40;;
57327;SDS011;43162;51.040;18.244;2023-05-23T01:33:18;11.00;;;6.40;;
57327;SDS011;43162;51.040;18.244;2023-05-23T01:35:44;10.30;;;7.10;;
57327;SDS011;43162;51.040;18.244;2023-05-23T01:38:10;11.80;;;6.40;;
57327;SDS011;43162;51.040;18.244;2023-05-23T01:40:35;8.40;;;6.50;;
57327;SDS011;43162;51.040;18.244;2023-05-23T01:43:01;12.60;;;6.20;;
57327;SDS011;43162;51.040;18.244;2023-05-23T01:45:27;9.50;;;6.90;;
57327;SDS011;43162;51.040;18.244;2023-05-23T01:47:53;8.80;;;6.40;;
57327;SDS011;43162;51.040;18.244;2023-05-23T01:50:20;9.00;;;6.40;;
57327;SDS011;43162;51.040;18.244;2023-05-23T01:52:46;10.90;;;6.20;;
57327;SDS011;43162;51.040;18.244;2023-05-23T01:55:12;10.80;;;6.60;;
57327;SDS011;43162;51.040;18.244;2023-05-23T01:57:39;12.10;;;6.20;;
57327;SDS011;43162;51.040;18.244;2023-05-23T02:02:36;9.70;;;6.70;;
57327;SDS011;43162;51.040;18.244;2023-05-23T02:05:02;9.90;;;6.40;;
57327;SDS011;43162;51.040;18.244;2023-05-23T02:07:28;10.60;;;6.50;;
57327;SDS011;43162;51.040;18.244;2023-05-23T02:09:54;8.80;;;5.70;;
57327;SDS011;43162;51.040;18.244;2023-05-23T02:12:20;12.70;;;6.90;;
57327;SDS011;43162;51.040;18.244;2023-05-23T02:14:45;10.10;;;5.90;;
57327;SDS011;43162;51.040;18.244;2023-05-23T02:17:11;16.90;;;6.40;;
57327;SDS011;43162;51.040;18.244;2023-05-23T02:19:39;11.60;;;6.20;;
57327;SDS011;43162;51.040;18.244;2023-05-23T02:22:04;8.10;;;6.10;;
57327;SDS011;43162;51.040;18.244;2023-05-23T02:24:30;11.30;;;6.10;;
57327;SDS011;43162;51.040;18.244;2023-05-23T02:26:55;12.20;;;6.00;;
57327;SDS011;43162;51.040;18.244;2023-05-23T02:29:20;10.80;;;6.80;;
57327;SDS011;43162;51.040;18.244;2023-05-23T02:31:46;14.90;;;6.50;;
57327;SDS011;43162;51.040;18.244;2023-05-23T02:34:11;10.20;;;6.30;;
57327;SDS011;43162;51.040;18.244;2023-05-23T02:36:37;11.90;;;5.90;;
57327;SDS011;43162;51.040;18.244;2023-05-23T02:39:03;11.70;;;6.40;;
57327;SDS011;43162;51.040;18.244;2023-05-23T02:41:30;12.30;;;6.20;;
57327;SDS011;43162;51.040;18.244;2023-05-23T02:43:56;10.00;;;6.40;;
57327;SDS011;43162;51.040;18.244;2023-05-23T02:46:22;12.40;;;6.80;;
57327;SDS011;43162;51.040;18.244;2023-05-23T02:48:47;10.20;;;6.10;;
57327;SDS011;43162;51.040;18.244;2023-05-23T02:51:13;9.40;;;5.50;;
57327;SDS011;43162;51.040;18.244;2023-05-23T02:53:38;9.20;;;6.90;;
57327;SDS011;43162;51.040;18.244;2023-05-23T02:56:04;10.30;;;6.70;;
57327;SDS011;43162;51.040;18.244;2023-05-23T02:58:32;10.10;;;6.00;;
57327;SDS011;43162;51.040;18.244;2023-05-23T03:01:02;14.20;;;6.30;;
57327;SDS011;43162;51.040;18.244;2023-05-23T03:03:28;9.30;;;6.60;;
57327;SDS011;43162;51.040;18.244;2023-05-23T03:05:56;11.20;;;5.90;;
57327;SDS011;43162;51.040;18.244;2023-05-23T03:08:23;8.10;;;6.00;;
57327;SDS011;43162;51.040;18.244;2023-05-23T03:10:48;10.10;;;5.90;;
57327;SDS011;43162;51.040;18.244;2023-05-23T03:13:14;8.40;;;6.10;;
57327;SDS011;43162;51.040;18.244;2023-05-23T03:15:40;10.90;;;6.60;;
57327;SDS011;43162;51.040;18.244;2023-05-23T03:18:06;9.60;;;6.50;;
57327;SDS011;43162;51.040;18.244;2023-05-23T03:20:31;12.50;;;6.50;;
57327;SDS011;43162;51.040;18.244;2023-05-23T03:22:57;11.70;;;5.60;;
57327;SDS011;43162;51.040;18.244;2023-05-23T03:25:22;7.80;;;5.90;;
57327;SDS011;43162;51.040;18.244;2023-05-23T03:27:48;9.30;;;5.80;;
57327;SDS011;43162;51.040;18.244;2023-05-23T03:30:14;8.10;;;5.10;;
57327;SDS011;43162;51.040;18.244;2023-05-23T03:32:40;13.10;;;5.00;;
57327;SDS011;43162;51.040;18.244;2023-05-23T03:35:05;8.70;;;6.10;;
57327;SDS011;43162;51.040;18.244;2023-05-23T03:37:31;8.80;;;5.50;;
57327;SDS011;43162;51.040;18.244;2023-05-23T03:39:56;9.70;;;5.40;;
57327;SDS011;43162;51.040;18.244;2023-05-23T03:42:22;11.40;;;5.20;;
57327;SDS011;43162;51.040;18.244;2023-05-23T03:44:47;8.20;;;6.00;;
57327;SDS011;43162;51.040;18.244;2023-05-23T03:47:13;11.60;;;5.80;;
57327;SDS011;43162;51.040;18.244;2023-05-23T03:49:38;6.20;;;4.90;;
57327;SDS011;43162;51.040;18.244;2023-05-23T03:52:04;10.70;;;5.70;;
57327;SDS011;43162;51.040;18.244;2023-05-23T03:54:29;9.70;;;6.30;;
57327;SDS011;43162;51.040;18.244;2023-05-23T03:56:55;9.80;;;5.40;;
57327;SDS011;43162;51.040;18.244;2023-05-23T03:59:21;7.90;;;5.40;;
57327;SDS011;43162;51.040;18.244;2023-05-23T04:01:46;9.70;;;5.50;;
57327;SDS011;43162;51.040;18.244;2023-05-23T04:04:12;7.00;;;5.40;;
57327;SDS011;43162;51.040;18.244;2023-05-23T04:06:37;7.20;;;5.30;;
57327;SDS011;43162;51.040;18.244;2023-05-23T04:09:04;9.60;;;5.30;;
57327;SDS011;43162;51.040;18.244;2023-05-23T04:11:31;10.40;;;5.60;;
57327;SDS011;43162;51.040;18.244;2023-05-23T04:13:57;7.60;;;5.40;;
57327;SDS011;43162;51.040;18.244;2023-05-23T04:16:22;8.50;;;5.30;;
57327;SDS011;43162;51.040;18.244;2023-05-23T04:18:48;9.50;;;5.30;;
57327;SDS011;43162;51.040;18.244;2023-05-23T04:21:14;9.40;;;4.70;;
57327;SDS011;43162;51.040;18.244;2023-05-23T04:23:39;13.80;;;5.40;;
57327;SDS011;43162;51.040;18.244;2023-05-23T04:26:05;7.10;;;4.70;;
57327;SDS011;43162;51.040;18.244;2023-05-23T04:28:30;10.30;;;5.50;;
57327;SDS011;43162;51.040;18.244;2023-05-23T04:30:56;11.30;;;5.70;;
57327;SDS011;43162;51.040;18.244;2023-05-23T04:33:22;7.70;;;5.20;;
57327;SDS011;43162;51.040;18.244;2023-05-23T04:35:48;7.20;;;5.30;;
57327;SDS011;43162;51.040;18.244;2023-05-23T04:38:14;9.70;;;5.20;;
57327;SDS011;43162;51.040;18.244;2023-05-23T04:40:39;6.40;;;4.70;;
57327;SDS011;43162;51.040;18.244;2023-05-23T04:43:04;8.10;;;5.10;;
57327;SDS011;43162;51.040;18.244;2023-05-23T04:45:30;8.60;;;5.00;;
57327;SDS011;43162;51.040;18.244;2023-05-23T04:47:56;7.70;;;5.40;;
57327;SDS011;43162;51.040;18.244;2023-05-23T04:50:21;8.10;;;5.50;;
57327;SDS011;43162;51.040;18.244;2023-05-23T04:52:47;7.10;;;6.00;;
57327;SDS011;43162;51.040;18.244;2023-05-23T04:55:12;10.10;;;5.90;;
57327;SDS011;43162;51.040;18.244;2023-05-23T04:57:38;12.40;;;5.30;;
57327;SDS011;43162;51.040;18.244;2023-05-23T05:00:04;15.50;;;10.40;;
57327;SDS011;43162;51.040;18.244;2023-05-23T05:02:39;7.20;;;6.30;;
57327;SDS011;43162;51.040;18.244;2023-05-23T05:05:05;8.40;;;5.00;;
57327;SDS011;43162;51.040;18.244;2023-05-23T05:07:31;7.70;;;5.50;;
57327;SDS011;43162;51.040;18.244;2023-05-23T05:09:56;6.90;;;5.10;;
57327;SDS011;43162;51.040;18.244;2023-05-23T05:12:22;8.50;;;5.70;;
57327;SDS011;43162;51.040;18.244;2023-05-23T05:14:47;6.00;;;4.80;;
57327;SDS011;43162;51.040;18.244;2023-05-23T05:17:13;10.90;;;5.90;;
57327;SDS011;43162;51.040;18.244;2023-05-23T05:19:38;8.80;;;5.40;;
57327;SDS011;43162;51.040;18.244;2023-05-23T05:22:04;6.60;;;4.80;;
57327;SDS011;43162;51.040;18.244;2023-05-23T05:24:30;8.60;;;4.80;;
57327;SDS011;43162;51.040;18.244;2023-05-23T05:26:57;9.60;;;5.50;;
57327;SDS011;43162;51.040;18.244;2023-05-23T05:29:22;9.30;;;4.70;;
57327;SDS011;43162;51.040;18.244;2023-05-23T05:31:48;9.30;;;5.40;;
57327;SDS011;43162;51.040;18.244;2023-05-23T05:34:13;8.00;;;5.90;;
57327;SDS011;43162;51.040;18.244;2023-05-23T05:36:39;11.90;;;5.60;;
57327;SDS011;43162;51.040;18.244;2023-05-23T05:39:11;10.80;;;5.20;;
57327;SDS011;43162;51.040;18.244;2023-05-23T05:41:37;10.30;;;5.00;;
57327;SDS011;43162;51.040;18.244;2023-05-23T05:44:03;10.80;;;5.00;;
57327;SDS011;43162;51.040;18.244;2023-05-23T05:46:29;6.90;;;4.80;;
57327;SDS011;43162;51.040;18.244;2023-05-23T05:48:54;8.60;;;4.50;;
57327;SDS011;43162;51.040;18.244;2023-05-23T05:51:19;13.80;;;5.30;;
57327;SDS011;43162;51.040;18.244;2023-05-23T05:53:46;8.50;;;5.20;;
57327;SDS011;43162;51.040;18.244;2023-05-23T05:56:11;9.10;;;5.20;;
57327;SDS011;43162;51.040;18.244;2023-05-23T05:58:37;6.30;;;4.60;;
57327;SDS011;43162;51.040;18.244;2023-05-23T06:01:03;9.00;;;5.00;;
57327;SDS011;43162;51.040;18.244;2023-05-23T06:03:30;7.80;;;4.70;;
57327;SDS011;43162;51.040;18.244;2023-05-23T06:05:56;4.80;;;4.30;;
57327;SDS011;43162;51.040;18.244;2023-05-23T06:08:22;7.00;;;4.90;;
57327;SDS011;43162;51.040;18.244;2023-05-23T06:10:47;6.30;;;5.50;;
57327;SDS011;43162;51.040;18.244;2023-05-23T06:13:13;10.00;;;5.60;;
57327;SDS011;43162;51.040;18.244;2023-05-23T06:15:39;8.30;;;5.20;;
57327;SDS011;43162;51.040;18.244;2023-05-23T06:18:05;10.80;;;5.30;;
57327;SDS011;43162;51.040;18.244;2023-05-23T06:20:30;7.50;;;5.40;;
57327;SDS011;43162;51.040;18.244;2023-05-23T06:22:57;13.00;;;5.80;;
57327;SDS011;43162;51.040;18.244;2023-05-23T06:25:24;10.10;;;5.80;;
57327;SDS011;43162;51.040;18.244;2023-05-23T06:27:49;6.20;;;5.00;;
57327;SDS011;43162;51.040;18.244;2023-05-23T06:30:15;8.70;;;5.70;;
57327;SDS011;43162;51.040;18.244;2023-05-23T06:32:40;6.20;;;5.30;;
57327;SDS011;43162;51.040;18.244;2023-05-23T06:35:06;7.80;;;4.90;;
57327;SDS011;43162;51.040;18.244;2023-05-23T06:37:32;9.20;;;5.00;;
57327;SDS011;43162;51.040;18.244;2023-05-23T06:39:57;11.80;;;5.30;;
57327;SDS011;43162;51.040;18.244;2023-05-23T06:42:22;10.50;;;5.80;;
57327;SDS011;43162;51.040;18.244;2023-05-23T06:44:48;9.60;;;5.80;;
57327;SDS011;43162;51.040;18.244;2023-05-23T06:47:13;9.60;;;5.30;;
57327;SDS011;43162;51.040;18.244;2023-05-23T06:49:39;8.20;;;5.80;;
57327;SDS011;43162;51.040;18.244;2023-05-23T06:52:04;7.80;;;5.10;;
57327;SDS011;43162;51.040;18.244;2023-05-23T06:54:30;13.60;;;5.60;;
57327;SDS011;43162;51.040;18.244;2023-05-23T06:56:55;7.90;;;5.80;;
57327;SDS011;43162;51.040;18.244;2023-05-23T06:59:21;7.20;;;5.60;;
57327;SDS011;43162;51.040;18.244;2023-05-23T07:01:46;10.00;;;5.90;;
57327;SDS011;43162;51.040;18.244;2023-05-23T07:04:12;8.60;;;5.50;;
57327;SDS011;43162;51.040;18.244;2023-05-23T07:06:38;10.40;;;5.60;;
57327;SDS011;43162;51.040;18.244;2023-05-23T07:09:04;7.90;;;5.80;;
57327;SDS011;43162;51.040;18.244;2023-05-23T07:11:29;16.20;;;9.10;;
57327;SDS011;43162;51.040;18.244;2023-05-23T07:13:55;11.90;;;6.20;;
57327;SDS011;43162;51.040;18.244;2023-05-23T07:16:20;10.00;;;5.80;;
57327;SDS011;43162;51.040;18.244;2023-05-23T07:18:46;10.50;;;5.30;;
57327;SDS011;43162;51.040;18.244;2023-05-23T07:21:11;15.20;;;5.60;;
57327;SDS011;43162;51.040;18.244;2023-05-23T07:23:37;8.50;;;5.00;;
57327;SDS011;43162;51.040;18.244;2023-05-23T07:26:02;8.40;;;5.10;;
57327;SDS011;43162;51.040;18.244;2023-05-23T07:28:29;10.60;;;5.80;;
57327;SDS011;43162;51.040;18.244;2023-05-23T07:30:55;7.80;;;5.50;;
57327;SDS011;43162;51.040;18.244;2023-05-23T07:33:22;8.00;;;5.20;;
57327;SDS011;43162;51.040;18.244;2023-05-23T07:35:48;10.40;;;5.00;;
57327;SDS011;43162;51.040;18.244;2023-05-23T07:38:15;10.70;;;5.40;;
57327;SDS011;43162;51.040;18.244;2023-05-23T07:40:40;8.00;;;4.90;;
57327;SDS011;43162;51.040;18.244;2023-05-23T07:43:05;8.60;;;4.70;;
57327;SDS011;43162;51.040;18.244;2023-05-23T07:45:31;7.70;;;5.00;;
57327;SDS011;43162;51.040;18.244;2023-05-23T07:47:56;8.20;;;5.40;;
57327;SDS011;43162;51.040;18.244;2023-05-23T07:50:22;6.30;;;4.90;;
57327;SDS011;43162;51.040;18.244;2023-05-23T07:52:47;8.40;;;5.10;;
57327;SDS011;43162;51.040;18.244;2023-05-23T07:55:15;11.30;;;4.70;;
57327;SDS011;43162;51.040;18.244;2023-05-23T07:57:40;8.40;;;4.70;;
57327;SDS011;43162;51.040;18.244;2023-05-23T08:00:06;7.30;;;4.60;;
57327;SDS011;43162;51.040;18.244;2023-05-23T08:02:32;9.20;;;4.70;;
57327;SDS011;43162;51.040;18.244;2023-05-23T08:04:57;13.20;;;5.90;;
57327;SDS011;43162;51.040;18.244;2023-05-23T08:07:24;7.50;;;4.70;;
57327;SDS011;43162;51.040;18.244;2023-05-23T08:09:49;5.90;;;4.20;;
57327;SDS011;43162;51.040;18.244;2023-05-23T08:12:15;6.50;;;4.40;;
57327;SDS011;43162;51.040;18.244;2023-05-23T08:14:40;7.00;;;5.20;;
57327;SDS011;43162;51.040;18.244;2023-05-23T08:17:06;8.20;;;3.90;;
57327;SDS011;43162;51.040;18.244;2023-05-23T08:19:31;5.50;;;4.10;;
57327;SDS011;43162;51.040;18.244;2023-05-23T08:21:57;9.00;;;4.30;;
57327;SDS011;43162;51.040;18.244;2023-05-23T08:24:23;10.80;;;4.90;;
57327;SDS011;43162;51.040;18.244;2023-05-23T08:26:48;9.20;;;4.90;;
57327;SDS011;43162;51.040;18.244;2023-05-23T08:29:14;7.30;;;4.30;;
57327;SDS011;43162;51.040;18.244;2023-05-23T08:31:40;15.20;;;4.30;;
57327;SDS011;43162;51.040;18.244;2023-05-23T08:34:05;8.30;;;3.80;;
57327;SDS011;43162;51.040;18.244;2023-05-23T08:36:31;6.60;;;4.10;;
57327;SDS011;43162;51.040;18.244;2023-05-23T08:38:58;6.20;;;4.70;;
57327;SDS011;43162;51.040;18.244;2023-05-23T08:41:24;9.20;;;4.10;;
57327;SDS011;43162;51.040;18.244;2023-05-23T08:43:50;11.50;;;4.60;;
57327;SDS011;43162;51.040;18.244;2023-05-23T08:46:15;12.80;;;4.10;;
57327;SDS011;43162;51.040;18.244;2023-05-23T08:48:41;7.00;;;4.80;;
57327;SDS011;43162;51.040;18.244;2023-05-23T08:51:10;10.30;;;4.20;;
57327;SDS011;43162;51.040;18.244;2023-05-23T08:53:40;9.70;;;4.10;;
57327;SDS011;43162;51.040;18.244;2023-05-23T08:56:05;9.60;;;4.50;;
57327;SDS011;43162;51.040;18.244;2023-05-23T08:58:32;6.30;;;3.80;;
57327;SDS011;43162;51.040;18.244;2023-05-23T09:00:59;7.00;;;3.80;;
57327;SDS011;43162;51.040;18.244;2023-05-23T09:03:25;12.30;;;3.80;;
57327;SDS011;43162;51.040;18.244;2023-05-23T09:05:52;5.80;;;3.70;;
57327;SDS011;43162;51.040;18.244;2023-05-23T09:08:18;6.80;;;4.00;;
57327;SDS011;43162;51.040;18.244;2023-05-23T09:10:44;10.70;;;3.80;;
57327;SDS011;43162;51.040;18.244;2023-05-23T09:13:10;10.10;;;3.90;;
57327;SDS011;43162;51.040;18.244;2023-05-23T09:15:35;6.90;;;3.30;;
57327;SDS011;43162;51.040;18.244;2023-05-23T09:18:02;7.20;;;3.70;;
57327;SDS011;43162;51.040;18.244;2023-05-23T09:20:28;9.40;;;3.20;;
57327;SDS011;43162;51.040;18.244;2023-05-23T09:22:53;7.70;;;3.70;;
57327;SDS011;43162;51.040;18.244;2023-05-23T09:25:20;8.20;;;3.60;;
57327;SDS011;43162;51.040;18.244;2023-05-23T09:27:45;5.90;;;3.60;;
57327;SDS011;43162;51.040;18.244;2023-05-23T09:30:11;8.80;;;4.10;;
57327;SDS011;43162;51.040;18.244;2023-05-23T09:32:37;7.80;;;4.00;;
57327;SDS011;43162;51.040;18.244;2023-05-23T09:35:06;4.90;;;3.10;;
57327;SDS011;43162;51.040;18.244;2023-05-23T09:37:35;8.80;;;3.40;;
57327;SDS011;43162;51.040;18.244;2023-05-23T09:40:06;5.30;;;3.40;;
57327;SDS011;43162;51.040;18.244;2023-05-23T09:42:32;10.40;;;3.40;;
57327;SDS011;43162;51.040;18.244;2023-05-23T09:45:01;7.90;;;3.60;;
57327;SDS011;43162;51.040;18.244;2023-05-23T09:47:27;7.80;;;3.90;;
57327;SDS011;43162;51.040;18.244;2023-05-23T09:49:53;4.50;;;3.20;;
57327;SDS011;43162;51.040;18.244;2023-05-23T09:52:19;6.00;;;3.70;;
57327;SDS011;43162;51.040;18.244;2023-05-23T09:54:47;8.50;;;3.90;;
57327;SDS011;43162;51.040;18.244;2023-05-23T09:57:13;13.40;;;3.50;;
57327;SDS011;43162;51.040;18.244;2023-05-23T09:59:39;6.40;;;3.40;;
57327;SDS011;43162;51.040;18.244;2023-05-23T10:02:06;11.20;;;3.40;;
57327;SDS011;43162;51.040;18.244;2023-05-23T10:04:33;7.70;;;3.40;;
57327;SDS011;43162;51.040;18.244;2023-05-23T10:07:17;10.10;;;3.40;;
57327;SDS011;43162;51.040;18.244;2023-05-23T10:09:46;9.30;;;3.90;;
57327;SDS011;43162;51.040;18.244;2023-05-23T10:14:51;6.50;;;3.40;;
57327;SDS011;43162;51.040;18.244;2023-05-23T10:17:28;5.80;;;3.70;;
57327;SDS011;43162;51.040;18.244;2023-05-23T10:19:59;5.90;;;2.90;;
57327;SDS011;43162;51.040;18.244;2023-05-23T10:22:26;8.90;;;3.30;;
57327;SDS011;43162;51.040;18.244;2023-05-23T10:24:54;17.00;;;4.80;;
57327;SDS011;43162;51.040;18.244;2023-05-23T10:27:20;8.70;;;3.50;;
57327;SDS011;43162;51.040;18.244;2023-05-23T10:29:46;7.00;;;3.90;;
57327;SDS011;43162;51.040;18.244;2023-05-23T10:32:12;4.90;;;3.10;;
57327;SDS011;43162;51.040;18.244;2023-05-23T10:37:44;5.30;;;3.20;;
57327;SDS011;43162;51.040;18.244;2023-05-23T10:42:51;9.30;;;3.80;;
57327;SDS011;43162;51.040;18.244;2023-05-23T10:45:17;6.30;;;3.60;;
57327;SDS011;43162;51.040;18.244;2023-05-23T10:47:45;11.70;;;4.00;;
57327;SDS011;43162;51.040;18.244;2023-05-23T10:50:11;14.80;;;4.40;;
57327;SDS011;43162;51.040;18.244;2023-05-23T10:52:38;6.80;;;3.60;;
57327;SDS011;43162;51.040;18.244;2023-05-23T10:55:11;6.30;;;3.60;;
57327;SDS011;43162;51.040;18.244;2023-05-23T10:57:37;7.60;;;3.30;;
57327;SDS011;43162;51.040;18.244;2023-05-23T11:00:02;12.20;;;3.20;;
57327;SDS011;43162;51.040;18.244;2023-05-23T11:02:28;8.90;;;4.70;;
57327;SDS011;43162;51.040;18.244;2023-05-23T11:07:38;11.50;;;4.90;;
57327;SDS011;43162;51.040;18.244;2023-05-23T11:10:08;7.60;;;4.30;;
57327;SDS011;43162;51.040;18.244;2023-05-23T11:12:42;23.30;;;5.00;;
57327;SDS011;43162;51.040;18.244;2023-05-23T11:17:49;11.80;;;5.20;;
57327;SDS011;43162;51.040;18.244;2023-05-23T11:20:15;5.60;;;3.90;;
57327;SDS011;43162;51.040;18.244;2023-05-23T11:22:47;9.00;;;3.10;;
57327;SDS011;43162;51.040;18.244;2023-05-23T11:25:17;10.90;;;3.80;;
57327;SDS011;43162;51.040;18.244;2023-05-23T11:27:45;5.30;;;3.30;;
57327;SDS011;43162;51.040;18.244;2023-05-23T11:30:17;7.80;;;3.50;;
57327;SDS011;43162;51.040;18.244;2023-05-23T11:32:52;7.80;;;3.50;;
57327;SDS011;43162;51.040;18.244;2023-05-23T11:35:18;6.30;;;3.30;;
57327;SDS011;43162;51.040;18.244;2023-05-23T11:37:45;5.00;;;2.90;;
57327;SDS011;43162;51.040;18.244;2023-05-23T11:40:31;9.40;;;3.80;;
57327;SDS011;43162;51.040;18.244;2023-05-23T11:42:57;16.40;;;5.90;;
57327;SDS011;43162;51.040;18.244;2023-05-23T11:45:23;28.20;;;6.20;;
57327;SDS011;43162;51.040;18.244;2023-05-23T11:47:49;14.70;;;4.90;;
57327;SDS011;43162;51.040;18.244;2023-05-23T11:50:14;17.80;;;4.60;;
57327;SDS011;43162;51.040;18.244;2023-05-23T11:52:40;14.50;;;6.10;;
57327;SDS011;43162;51.040;18.244;2023-05-23T11:55:09;9.30;;;6.40;;
57327;SDS011;43162;51.040;18.244;2023-05-23T11:57:38;15.80;;;6.50;;
57327;SDS011;43162;51.040;18.244;2023-05-23T12:00:07;10.10;;;6.30;;
57327;SDS011;43162;51.040;18.244;2023-05-23T12:02:39;18.00;;;6.90;;
57327;SDS011;43162;51.040;18.244;2023-05-23T12:05:08;9.90;;;7.50;;
57327;SDS011;43162;51.040;18.244;2023-05-23T12:07:35;11.00;;;7.20;;
57327;SDS011;43162;51.040;18.244;2023-05-23T12:10:02;10.80;;;7.60;;
57327;SDS011;43162;51.040;18.244;2023-05-23T12:12:28;10.90;;;7.00;;
57327;SDS011;43162;51.040;18.244;2023-05-23T12:14:56;10.90;;;7.30;;
57327;SDS011;43162;51.040;18.244;2023-05-23T12:17:22;9.90;;;7.60;;
57327;SDS011;43162;51.040;18.244;2023-05-23T12:19:48;12.00;;;6.80;;
57327;SDS011;43162;51.040;18.244;2023-05-23T12:22:14;9.10;;;6.50;;
57327;SDS011;43162;51.040;18.244;2023-05-23T12:24:45;20.30;;;6.40;;
57327;SDS011;43162;51.040;18.244;2023-05-23T12:27:11;12.50;;;5.70;;
57327;SDS011;43162;51.040;18.244;2023-05-23T12:29:37;5.70;;;4.20;;
57327;SDS011;43162;51.040;18.244;2023-05-23T12:32:04;8.80;;;5.80;;
57327;SDS011;43162;51.040;18.244;2023-05-23T12:34:30;10.30;;;5.30;;
57327;SDS011;43162;51.040;18.244;2023-05-23T12:36:56;9.00;;;4.50;;
57327;SDS011;43162;51.040;18.244;2023-05-23T12:39:28;7.40;;;5.00;;
57327;SDS011;43162;51.040;18.244;2023-05-23T12:41:54;8.30;;;5.00;;
57327;SDS011;43162;51.040;18.244;2023-05-23T12:44:23;5.40;;;4.50;;
57327;SDS011;43162;51.040;18.244;2023-05-23T12:46:48;8.90;;;5.80;;
57327;SDS011;43162;51.040;18.244;2023-05-23T12:49:14;10.10;;;6.40;;
57327;SDS011;43162;51.040;18.244;2023-05-23T12:51:40;9.30;;;6.90;;
57327;SDS011;43162;51.040;18.244;2023-05-23T12:54:07;10.30;;;6.80;;
57327;SDS011;43162;51.040;18.244;2023-05-23T12:56:32;11.30;;;7.10;;
57327;SDS011;43162;51.040;18.244;2023-05-23T12:59:18;8.90;;;6.20;;
57327;SDS011;43162;51.040;18.244;2023-05-23T13:01:44;8.00;;;5.90;;
57327;SDS011;43162;51.040;18.244;2023-05-23T13:04:09;8.50;;;6.70;;
57327;SDS011;43162;51.040;18.244;2023-05-23T13:06:35;9.90;;;7.40;;
57327;SDS011;43162;51.040;18.244;2023-05-23T13:09:00;10.30;;;7.30;;
57327;SDS011;43162;51.040;18.244;2023-05-23T13:11:26;11.00;;;6.80;;
57327;SDS011;43162;51.040;18.244;2023-05-23T13:13:51;11.50;;;6.70;;
57327;SDS011;43162;51.040;18.244;2023-05-23T13:16:17;7.90;;;6.70;;
57327;SDS011;43162;51.040;18.244;2023-05-23T13:18:43;13.00;;;6.40;;
57327;SDS011;43162;51.040;18.244;2023-05-23T13:21:08;11.50;;;5.40;;
57327;SDS011;43162;51.040;18.244;2023-05-23T13:23:34;10.30;;;5.50;;
57327;SDS011;43162;51.040;18.244;2023-05-23T13:26:01;11.40;;;6.20;;
57327;SDS011;43162;51.040;18.244;2023-05-23T13:28:26;9.70;;;6.20;;
57327;SDS011;43162;51.040;18.244;2023-05-23T13:30:52;14.00;;;6.50;;
57327;SDS011;43162;51.040;18.244;2023-05-23T13:33:18;6.70;;;5.90;;
57327;SDS011;43162;51.040;18.244;2023-05-23T13:35:43;7.00;;;5.70;;
57327;SDS011;43162;51.040;18.244;2023-05-23T13:38:08;6.20;;;5.40;;
57327;SDS011;43162;51.040;18.244;2023-05-23T13:40:34;8.10;;;5.70;;
57327;SDS011;43162;51.040;18.244;2023-05-23T13:43:00;7.50;;;5.10;;
57327;SDS011;43162;51.040;18.244;2023-05-23T13:45:25;9.20;;;5.00;;
57327;SDS011;43162;51.040;18.244;2023-05-23T13:47:51;6.40;;;5.20;;
57327;SDS011;43162;51.040;18.244;2023-05-23T13:50:16;5.10;;;4.40;;
57327;SDS011;43162;51.040;18.244;2023-05-23T13:52:42;8.40;;;5.20;;
57327;SDS011;43162;51.040;18.244;2023-05-23T13:55:07;7.90;;;4.80;;
57327;SDS011;43162;51.040;18.244;2023-05-23T13:57:33;7.00;;;4.90;;
57327;SDS011;43162;51.040;18.244;2023-05-23T13:59:58;11.30;;;7.20;;
57327;SDS011;43162;51.040;18.244;2023-05-23T14:02:24;5.50;;;4.60;;
57327;SDS011;43162;51.040;18.244;2023-05-23T14:05:07;7.60;;;4.80;;
57327;SDS011;43162;51.040;18.244;2023-05-23T14:13:20;7.30;;;5.20;;
57327;SDS011;43162;51.040;18.244;2023-05-23T14:18:12;7.30;;;5.10;;
57327;SDS011;43162;51.040;18.244;2023-05-23T14:20:38;5.70;;;4.70;;
57327;SDS011;43162;51.040;18.244;2023-05-23T14:58:31;9.30;;;5.50;;
57327;SDS011;43162;51.040;18.244;2023-05-23T15:00:58;7.10;;;5.60;;
57327;SDS011;43162;51.040;18.244;2023-05-23T15:03:23;8.40;;;4.30;;
57327;SDS011;43162;51.040;18.244;2023-05-23T15:05:49;10.90;;;5.10;;
57327;SDS011;43162;51.040;18.244;2023-05-23T15:14:11;8.20;;;4.80;;
57327;SDS011;43162;51.040;18.244;2023-05-23T15:16:37;4.90;;;4.40;;
57327;SDS011;43162;51.040;18.244;2023-05-23T15:50:05;4.40;;;4.00;;
57327;SDS011;43162;51.040;18.244;2023-05-23T15:52:31;7.60;;;5.40;;
57327;SDS011;43162;51.040;18.244;2023-05-23T15:58:07;5.80;;;4.90;;
57327;SDS011;43162;51.040;18.244;2023-05-23T16:00:33;7.00;;;4.30;;
57327;SDS011;43162;51.040;18.244;2023-05-23T16:02:58;5.10;;;4.70;;
57327;SDS011;43162;51.040;18.244;2023-05-23T16:05:34;14.70;;;3.70;;
57327;SDS011;43162;51.040;18.244;2023-05-23T16:08:00;5.00;;;4.60;;
57327;SDS011;43162;51.040;18.244;2023-05-23T16:13:21;13.40;;;4.80;;
57327;SDS011;43162;51.040;18.244;2023-05-23T16:15:47;5.80;;;4.70;;
57327;SDS011;43162;51.040;18.244;2023-05-23T16:18:13;6.20;;;4.20;;